createdAt,value
2023-06-11T00:01:30.925Z,26.41
2023-06-11T00:03:58.977Z,26.43
2023-06-11T00:06:26.395Z,26.43
2023-06-11T00:08:55.491Z,26.46
2023-06-11T00:11:23.561Z,26.47
2023-06-11T00:13:51.561Z,26.48
2023-06-11T00:16:18.905Z,26.48
2023-06-11T00:18:46.584Z,26.50
2023-06-11T00:21:14.926Z,26.51
2023-06-11T00:23:42.358Z,26.52
2023-06-11T00:26:09.993Z,26.52
2023-06-11T00:28:37.431Z,26.52
2023-06-11T00:31:05.287Z,26.54
2023-06-11T00:33:32.650Z,26.54
2023-06-11T00:36:00.015Z,26.55
2023-06-11T00:38:27.252Z,26.54
2023-06-11T00:40:54.494Z,26.55
2023-06-11T00:43:24.335Z,26.55
2023-06-11T00:45:52.417Z,26.56
2023-06-11T00:48:20.875Z,26.55
2023-06-11T00:50:50.314Z,26.56
2023-06-11T00:53:18.997Z,26.56
2023-06-11T00:55:46.937Z,26.56
2023-06-11T00:58:15.601Z,26.57
2023-06-11T01:00:51.537Z,26.57
2023-06-11T01:03:28.447Z,26.56
2023-06-11T01:06:08.343Z,26.57
2023-06-11T01:08:40.437Z,26.58
2023-06-11T01:11:22.425Z,26.57
2023-06-11T01:13:50.260Z,26.57
2023-06-11T01:16:47.608Z,26.58
2023-06-11T01:19:38.363Z,26.58
2023-06-11T01:22:14.915Z,26.59
2023-06-11T01:25:04.393Z,26.57
2023-06-11T01:27:53.176Z,26.57
2023-06-11T01:30:21.859Z,26.57
2023-06-11T01:32:57.109Z,26.58
2023-06-11T01:35:24.986Z,26.59
2023-06-11T01:37:59.481Z,26.60
2023-06-11T01:40:27.599Z,26.60
2023-06-11T01:42:55.896Z,26.60
2023-06-11T01:45:24.314Z,26.61
2023-06-11T01:47:52.300Z,26.60
2023-06-11T01:50:20.559Z,26.61
2023-06-11T01:52:48.302Z,26.61
2023-06-11T01:55:15.946Z,26.62
2023-06-11T01:57:43.295Z,26.60
2023-06-11T02:00:11.424Z,26.61
2023-06-11T02:02:40.721Z,26.61
2023-06-11T02:05:09.158Z,26.62
2023-06-11T02:07:37.481Z,26.61
2023-06-11T02:10:05.272Z,26.61
2023-06-11T02:12:32.596Z,26.60
2023-06-11T02:14:59.987Z,26.61
2023-06-11T02:17:27.337Z,26.61
2023-06-11T02:19:54.577Z,26.62
2023-06-11T02:22:21.902Z,26.61
2023-06-11T02:24:49.129Z,26.61
2023-06-11T02:27:16.583Z,26.61
2023-06-11T02:29:43.791Z,26.62
2023-06-11T02:32:12.667Z,26.61
2023-06-11T02:34:40.156Z,26.62
2023-06-11T02:37:07.691Z,26.62
2023-06-11T02:39:35.009Z,26.61
2023-06-11T02:42:02.429Z,26.62
2023-06-11T02:44:29.666Z,26.62
2023-06-11T02:46:56.974Z,26.62
2023-06-11T02:49:24.205Z,26.62
2023-06-11T02:51:51.505Z,26.61
2023-06-11T02:54:18.783Z,26.62
2023-06-11T02:56:46.106Z,26.61
2023-06-11T02:59:13.367Z,26.60
2023-06-11T03:01:40.822Z,26.60
2023-06-11T03:04:08.308Z,26.61
2023-06-11T03:06:35.903Z,26.59
2023-06-11T03:09:03.257Z,26.59
2023-06-11T03:11:30.547Z,26.59
2023-06-11T03:13:57.833Z,26.59
2023-06-11T03:16:25.247Z,26.59
2023-06-11T03:18:52.530Z,26.59
2023-06-11T03:21:19.803Z,26.59
2023-06-11T03:23:47.041Z,26.58
2023-06-11T03:26:14.301Z,26.58
2023-06-11T03:28:41.512Z,26.59
2023-06-11T03:31:08.812Z,26.59
2023-06-11T03:33:36.111Z,26.58
2023-06-11T03:36:03.329Z,26.57
2023-06-11T03:38:30.585Z,26.57
2023-06-11T03:40:57.818Z,26.58
2023-06-11T03:43:25.145Z,26.58
2023-06-11T03:45:52.482Z,26.58
2023-06-11T03:48:19.747Z,26.58
2023-06-11T03:50:47.098Z,26.59
2023-06-11T03:53:14.365Z,26.57
2023-06-11T03:55:41.613Z,26.58
2023-06-11T03:58:08.861Z,26.57
2023-06-11T04:00:36.375Z,26.57
2023-06-11T04:03:03.771Z,26.57
2023-06-11T04:05:38.836Z,26.57
2023-06-11T04:08:06.109Z,26.57
2023-06-11T04:10:33.645Z,26.57
2023-06-11T04:13:01.053Z,26.57
2023-06-11T04:15:28.336Z,26.57
2023-06-11T04:17:55.631Z,26.57
2023-06-11T04:20:22.998Z,26.57
2023-06-11T04:22:50.338Z,26.57
2023-06-11T04:25:20.236Z,26.56
2023-06-11T04:27:48.329Z,26.58
2023-06-11T04:30:15.867Z,26.56
2023-06-11T04:32:43.257Z,26.57
2023-06-11T04:35:14.750Z,26.56
2023-06-11T04:37:43.332Z,26.56
2023-06-11T04:40:11.751Z,26.56
2023-06-11T04:42:42.541Z,26.56
2023-06-11T04:45:11.601Z,26.56
2023-06-11T04:47:39.461Z,26.56
2023-06-11T04:50:07.651Z,26.56
2023-06-11T04:52:44.130Z,26.55
2023-06-11T04:55:13.448Z,26.56
2023-06-11T04:57:41.115Z,26.55
2023-06-11T05:00:09.664Z,26.56
2023-06-11T05:02:45.661Z,26.55
2023-06-11T05:05:14.023Z,26.55
2023-06-11T05:07:42.950Z,26.56
2023-06-11T05:10:10.468Z,26.56
2023-06-11T05:12:37.735Z,26.56
2023-06-11T05:15:05.458Z,26.57
2023-06-11T05:17:34.014Z,26.57
2023-06-11T05:20:01.367Z,26.56
2023-06-11T05:22:28.634Z,26.58
2023-06-11T05:24:55.931Z,26.59
2023-06-11T05:27:24.854Z,26.60
2023-06-11T05:29:52.678Z,26.62
2023-06-11T05:32:20.102Z,26.63
2023-06-11T05:34:50.918Z,26.64
2023-06-11T05:37:18.510Z,26.65
2023-06-11T05:39:47.066Z,26.65
2023-06-11T05:42:14.381Z,26.68
2023-06-11T05:44:42.109Z,26.69
2023-06-11T05:47:09.400Z,26.70
2023-06-11T05:49:37.063Z,26.71
2023-06-11T05:52:04.452Z,26.73
2023-06-11T05:54:31.690Z,26.76
2023-06-11T05:56:59.328Z,26.78
2023-06-11T05:59:26.589Z,26.80
2023-06-11T06:02:00.264Z,26.82
2023-06-11T06:04:27.727Z,26.83
2023-06-11T06:06:57.814Z,26.84
2023-06-11T06:09:25.044Z,26.85
2023-06-11T06:11:52.307Z,26.86
2023-06-11T06:14:19.567Z,26.87
2023-06-11T06:16:47.196Z,26.87
2023-06-11T06:19:14.581Z,26.88
2023-06-11T06:21:42.055Z,26.89
2023-06-11T06:24:10.982Z,26.91
2023-06-11T06:26:42.175Z,26.92
2023-06-11T06:29:09.864Z,26.93
2023-06-11T06:31:38.244Z,26.93
2023-06-11T06:34:05.540Z,26.95
2023-06-11T06:36:32.930Z,26.96
2023-06-11T06:39:01.304Z,26.98
2023-06-11T06:41:28.632Z,26.98
2023-06-11T06:43:57.668Z,26.99
2023-06-11T06:46:26.547Z,27.00
2023-06-11T06:48:53.925Z,27.02
2023-06-11T06:51:21.715Z,27.02
2023-06-11T06:53:49.217Z,27.03
2023-06-11T06:56:19.734Z,27.04
2023-06-11T06:58:46.976Z,27.05
2023-06-11T07:01:14.320Z,27.05
2023-06-11T07:03:42.337Z,27.05
2023-06-11T07:06:09.784Z,27.03
2023-06-11T07:08:38.839Z,27.01
2023-06-11T07:11:06.132Z,26.98
2023-06-11T07:13:33.412Z,26.97
2023-06-11T07:16:01.193Z,26.97
2023-06-11T07:18:29.322Z,26.95
2023-06-11T07:20:56.597Z,26.96
2023-06-11T07:23:23.861Z,26.95
2023-06-11T07:25:51.569Z,26.96
2023-06-11T07:28:18.931Z,26.96
2023-06-11T07:30:46.315Z,26.95
2023-06-11T07:33:13.687Z,26.95
2023-06-11T07:35:41.449Z,26.96
2023-06-11T07:38:08.767Z,26.95
2023-06-11T07:40:36.694Z,26.95
2023-06-11T07:43:03.941Z,26.95
2023-06-11T07:45:31.395Z,26.95
2023-06-11T07:47:58.663Z,26.95
2023-06-11T07:50:26.266Z,26.95
2023-06-11T07:52:53.486Z,26.95
2023-06-11T07:55:20.892Z,26.95
2023-06-11T07:57:48.290Z,26.95
2023-06-11T08:00:18.059Z,26.95
2023-06-11T08:02:45.830Z,26.94
2023-06-11T08:05:18.675Z,26.95
2023-06-11T08:07:47.178Z,26.95
2023-06-11T08:10:14.652Z,26.95
2023-06-11T08:12:42.152Z,26.96
2023-06-11T08:15:09.880Z,26.97
2023-06-11T08:17:37.292Z,26.97
2023-06-11T08:20:07.857Z,26.96
2023-06-11T08:22:35.207Z,26.98
2023-06-11T08:25:02.481Z,26.85
2023-06-11T08:27:29.712Z,26.76
2023-06-11T08:29:56.994Z,26.70
2023-06-11T08:32:25.875Z,26.69
2023-06-11T08:34:53.295Z,26.67
2023-06-11T08:37:20.562Z,26.65
2023-06-11T08:39:47.779Z,26.64
2023-06-11T08:42:15.131Z,26.64
2023-06-11T08:44:42.683Z,26.62
2023-06-11T08:47:11.940Z,26.62
2023-06-11T08:49:45.220Z,26.61
2023-06-11T08:52:14.330Z,26.60
2023-06-11T08:54:41.717Z,26.65
2023-06-11T08:57:09.783Z,26.69
2023-06-11T08:59:37.020Z,26.71
2023-06-11T09:02:04.698Z,26.72
2023-06-11T09:04:32.138Z,26.73
2023-06-11T09:07:01.888Z,26.80
2023-06-11T09:09:29.354Z,26.82
2023-06-11T09:11:56.993Z,26.85
2023-06-11T09:14:24.268Z,26.87
2023-06-11T09:16:51.799Z,26.79
2023-06-11T09:19:20.942Z,26.83
2023-06-11T09:21:52.787Z,26.87
2023-06-11T09:24:21.078Z,26.78
2023-06-11T09:26:59.270Z,26.77
2023-06-11T09:29:28.829Z,26.79
2023-06-11T09:32:19.544Z,26.81
2023-06-11T09:34:57.311Z,26.81
2023-06-11T09:37:24.785Z,26.75
2023-06-11T09:39:52.274Z,26.73
2023-06-11T09:42:27.985Z,26.78
2023-06-11T09:45:01.978Z,26.73
2023-06-11T09:47:31.907Z,26.74
2023-06-11T09:50:00.079Z,26.80
2023-06-11T09:52:30.792Z,26.82
2023-06-11T09:54:58.467Z,26.77
2023-06-11T09:57:26.001Z,26.74
2023-06-11T09:59:53.705Z,26.75
2023-06-11T10:02:22.278Z,26.74
2023-06-11T10:04:49.969Z,26.77
2023-06-11T10:07:17.603Z,26.78
2023-06-11T10:09:47.155Z,26.77
2023-06-11T10:12:17.394Z,26.79
2023-06-11T10:14:52.436Z,26.86
2023-06-11T10:17:21.781Z,26.89
2023-06-11T10:19:50.043Z,26.97
2023-06-11T10:22:34.804Z,27.05
2023-06-11T10:25:05.724Z,27.03
2023-06-11T10:27:41.757Z,27.01
2023-06-11T10:30:10.385Z,27.04
2023-06-11T10:32:47.872Z,27.05
2023-06-11T10:35:23.709Z,27.08
2023-06-11T10:37:51.113Z,27.12
2023-06-11T10:40:20.840Z,27.13
2023-06-11T10:42:53.364Z,27.14
2023-06-11T10:45:21.126Z,27.16
2023-06-11T10:47:51.015Z,27.16
2023-06-11T10:50:26.408Z,27.17
2023-06-11T10:52:57.232Z,27.16
2023-06-11T10:55:27.396Z,27.13
2023-06-11T10:57:55.147Z,27.06
2023-06-11T11:00:23.231Z,27.08
2023-06-11T11:02:51.846Z,27.11
2023-06-11T11:05:19.125Z,27.17
2023-06-11T11:07:47.077Z,27.18
2023-06-11T11:10:20.031Z,27.20
2023-06-11T11:12:48.261Z,27.23
2023-06-11T11:15:16.287Z,27.23
2023-06-11T11:17:44.640Z,27.21
2023-06-11T11:20:18.429Z,27.13
2023-06-11T11:22:53.610Z,27.20
2023-06-11T11:25:22.919Z,27.26
2023-06-11T11:27:50.538Z,27.27
2023-06-11T11:30:21.002Z,27.25
2023-06-11T11:32:48.429Z,27.26
2023-06-11T11:35:16.141Z,27.27
2023-06-11T11:37:45.828Z,27.26
2023-06-11T11:40:13.889Z,27.25
2023-06-11T11:42:48.232Z,27.27
2023-06-11T11:45:16.065Z,27.28
2023-06-11T11:47:53.318Z,27.27
2023-06-11T11:50:28.418Z,27.29
2023-06-11T11:53:06.845Z,27.29
2023-06-11T11:55:52.414Z,27.24
2023-06-11T11:58:28.291Z,27.25
2023-06-11T12:00:57.730Z,27.24
2023-06-11T12:03:26.192Z,27.25
2023-06-11T12:06:07.656Z,27.25
2023-06-11T12:08:36.647Z,27.24
2023-06-11T12:11:07.595Z,27.25
2023-06-11T12:13:35.561Z,27.29
2023-06-11T12:16:04.872Z,27.28
2023-06-11T12:18:33.559Z,27.28
2023-06-11T12:21:01.080Z,27.33
2023-06-11T12:23:28.405Z,27.33
2023-06-11T12:25:55.639Z,27.36
2023-06-11T12:28:22.947Z,27.36
2023-06-11T12:30:50.285Z,27.37
2023-06-11T12:33:17.801Z,27.36
2023-06-11T12:35:45.629Z,27.35
2023-06-11T12:38:14.115Z,27.34
2023-06-11T12:40:41.726Z,27.34
2023-06-11T12:43:09.109Z,27.39
2023-06-11T12:45:38.530Z,27.38
2023-06-11T12:48:06.564Z,27.43
2023-06-11T12:50:34.049Z,27.42
2023-06-11T12:53:02.569Z,27.47
2023-06-11T12:55:29.953Z,27.48
2023-06-11T12:57:57.198Z,27.48
2023-06-11T13:00:26.441Z,27.50
2023-06-11T13:02:53.745Z,27.49
2023-06-11T13:05:22.659Z,27.49
2023-06-11T13:07:50.504Z,27.50
2023-06-11T13:10:18.153Z,27.50
2023-06-11T13:12:45.468Z,27.50
2023-06-11T13:15:12.700Z,27.49
2023-06-11T13:17:40.266Z,27.49
2023-06-11T13:20:11.372Z,27.49
2023-06-11T13:22:39.483Z,27.50
2023-06-11T13:25:07.196Z,27.50
2023-06-11T13:27:34.420Z,27.50
2023-06-11T13:30:02.551Z,27.51
2023-06-11T13:32:29.878Z,27.53
2023-06-11T13:34:58.334Z,27.53
2023-06-11T13:37:25.637Z,27.53
2023-06-11T13:39:53.019Z,27.53
2023-06-11T13:42:20.482Z,27.52
2023-06-11T13:44:47.756Z,27.53
2023-06-11T13:47:15.063Z,27.54
2023-06-11T13:49:42.741Z,27.57
2023-06-11T13:52:09.967Z,27.57
2023-06-11T13:54:38.385Z,27.58
2023-06-11T13:57:05.799Z,27.60
2023-06-11T13:59:33.734Z,27.61
2023-06-11T14:05:12.563Z,27.60
2023-06-11T14:07:40.876Z,27.61
2023-06-11T14:10:09.055Z,27.59
2023-06-11T14:12:36.543Z,27.60
2023-06-11T14:15:04.096Z,27.58
2023-06-11T14:17:31.786Z,27.60
2023-06-11T14:19:59.129Z,27.61
2023-06-11T14:22:26.506Z,27.61
2023-06-11T14:24:53.829Z,27.60
2023-06-11T14:27:21.045Z,27.61
2023-06-11T14:29:48.328Z,27.63
2023-06-11T14:32:15.799Z,27.62
2023-06-11T14:34:43.050Z,27.62
2023-06-11T14:37:10.582Z,27.61
2023-06-11T14:39:37.802Z,27.63
2023-06-11T14:42:06.159Z,27.64
2023-06-11T14:44:33.499Z,27.64
2023-06-11T14:47:01.132Z,27.63
2023-06-11T14:49:28.354Z,27.62
2023-06-11T14:51:56.784Z,27.59
2023-06-11T14:54:25.929Z,27.61
2023-06-11T14:56:55.559Z,27.62
2023-06-11T14:59:22.854Z,27.64
2023-06-11T15:01:50.097Z,27.66
2023-06-11T15:04:17.441Z,27.64
2023-06-11T15:06:44.989Z,27.69
2023-06-11T15:09:12.273Z,27.68
2023-06-11T15:11:39.501Z,27.70
2023-06-11T15:14:06.853Z,27.69
2023-06-11T15:16:34.197Z,27.70
2023-06-11T15:19:01.519Z,27.71
2023-06-11T15:21:28.778Z,27.60
2023-06-11T15:23:56.710Z,27.53
2023-06-11T15:26:24.095Z,27.49
2023-06-11T15:28:51.345Z,27.56
2023-06-11T15:31:18.716Z,27.57
2023-06-11T15:33:46.077Z,27.61
2023-06-11T15:36:13.583Z,27.62
2023-06-11T15:38:40.921Z,27.63
2023-06-11T15:41:08.141Z,27.64
2023-06-11T15:43:35.795Z,27.66
2023-06-11T15:46:03.463Z,27.67
2023-06-11T15:48:30.803Z,27.69
2023-06-11T15:50:58.126Z,27.70
2023-06-11T15:53:25.550Z,27.70
2023-06-11T15:55:52.774Z,27.70
2023-06-11T15:58:20.154Z,27.71
2023-06-11T16:00:47.512Z,27.72
2023-06-11T16:03:16.395Z,27.73
2023-06-11T16:05:44.045Z,27.74
2023-06-11T16:08:11.790Z,27.74
2023-06-11T16:10:39.227Z,27.75
2023-06-11T16:13:06.548Z,27.76
2023-06-11T16:15:34.561Z,27.77
2023-06-11T16:18:01.983Z,27.76
2023-06-11T16:20:31.122Z,27.74
2023-06-11T16:22:58.430Z,27.69
2023-06-11T16:25:25.795Z,27.70
2023-06-11T16:27:53.293Z,27.67
2023-06-11T16:30:20.744Z,27.57
2023-06-11T16:32:48.032Z,27.55
2023-06-11T16:35:17.830Z,27.53
2023-06-11T16:37:45.728Z,27.52
2023-06-11T16:40:13.056Z,27.52
2023-06-11T16:42:40.337Z,27.51
2023-06-11T16:45:07.964Z,27.53
2023-06-11T16:47:35.308Z,27.56
2023-06-11T16:50:02.591Z,27.59
2023-06-11T16:52:30.907Z,27.61
2023-06-11T16:55:01.393Z,27.63
2023-06-11T16:57:29.175Z,27.63
2023-06-11T16:59:58.211Z,27.63
2023-06-11T17:02:25.503Z,27.62
2023-06-11T17:04:52.855Z,27.64
2023-06-11T17:07:20.269Z,27.63
2023-06-11T17:09:47.566Z,27.62
2023-06-11T17:12:15.306Z,27.62
2023-06-11T17:14:42.528Z,27.63
2023-06-11T17:17:09.802Z,27.62
2023-06-11T17:19:37.342Z,27.62
2023-06-11T17:22:04.690Z,27.62
2023-06-11T17:24:32.117Z,27.61
2023-06-11T17:26:59.532Z,27.58
2023-06-11T17:29:26.794Z,27.61
2023-06-11T17:31:54.115Z,27.61
2023-06-11T17:34:21.354Z,27.61
2023-06-11T17:36:49.304Z,27.60
2023-06-11T17:39:16.588Z,27.59
2023-06-11T17:41:43.869Z,27.60
2023-06-11T17:44:11.102Z,27.57
2023-06-11T17:46:38.335Z,27.58
2023-06-11T17:49:05.866Z,27.60
2023-06-11T17:51:33.110Z,27.58
2023-06-11T17:54:00.876Z,27.57
2023-06-11T17:56:28.504Z,27.49
2023-06-11T17:58:55.713Z,27.45
2023-06-11T18:01:23.722Z,27.41
2023-06-11T18:03:51.264Z,27.43
2023-06-11T18:06:18.962Z,27.43
2023-06-11T18:08:46.363Z,27.51
2023-06-11T18:11:13.642Z,27.47
2023-06-11T18:13:40.912Z,27.52
2023-06-11T18:16:08.432Z,27.55
2023-06-11T18:18:35.832Z,27.54
2023-06-11T18:21:03.131Z,27.55
2023-06-11T18:23:30.390Z,27.55
2023-06-11T18:25:58.102Z,27.54
2023-06-11T18:28:26.494Z,27.52
2023-06-11T18:30:54.419Z,27.53
2023-06-11T18:33:21.757Z,27.51
2023-06-11T18:35:49.137Z,27.52
2023-06-11T18:38:16.359Z,27.49
2023-06-11T18:40:43.664Z,27.47
2023-06-11T18:43:11.018Z,27.47
2023-06-11T18:45:38.294Z,27.48
2023-06-11T18:48:05.833Z,27.48
2023-06-11T18:50:33.192Z,27.47
2023-06-11T18:53:00.570Z,27.47
2023-06-11T18:55:30.513Z,27.47
2023-06-11T18:58:06.265Z,27.47
2023-06-11T19:00:35.170Z,27.46
2023-06-11T19:03:03.077Z,27.44
2023-06-11T19:05:30.776Z,27.39
2023-06-11T19:07:58.038Z,27.34
2023-06-11T19:10:25.410Z,27.32
2023-06-11T19:12:54.897Z,27.31
2023-06-11T19:15:23.452Z,27.31
2023-06-11T19:17:50.953Z,27.26
2023-06-11T19:20:18.575Z,27.26
2023-06-11T19:22:46.041Z,27.24
2023-06-11T19:25:13.394Z,27.23
2023-06-11T19:27:40.633Z,27.22
2023-06-11T19:30:08.313Z,27.23
2023-06-11T19:32:36.024Z,27.28
2023-06-11T19:35:03.321Z,27.31
2023-06-11T19:37:30.808Z,27.30
2023-06-11T19:39:58.074Z,27.29
2023-06-11T19:42:25.289Z,27.29
2023-06-11T19:44:52.834Z,27.28
2023-06-11T19:47:20.461Z,27.27
2023-06-11T19:49:48.531Z,27.26
2023-06-11T19:52:15.876Z,27.22
2023-06-11T19:54:51.070Z,27.17
2023-06-11T19:57:20.034Z,27.16
2023-06-11T19:59:48.048Z,27.16
2023-06-11T20:02:15.748Z,27.16
2023-06-11T20:04:43.161Z,27.15
2023-06-11T20:07:10.414Z,27.13
2023-06-11T20:09:37.694Z,27.13
2023-06-11T20:12:08.205Z,27.15
2023-06-11T20:14:36.630Z,27.15
2023-06-11T20:17:04.875Z,27.11
2023-06-11T20:19:35.088Z,27.07
2023-06-11T20:22:03.514Z,26.91
2023-06-11T20:24:30.775Z,26.90
2023-06-11T20:26:58.042Z,26.91
2023-06-11T20:29:25.422Z,26.92
2023-06-11T20:31:53.271Z,26.87
2023-06-11T20:34:20.799Z,26.91
2023-06-11T20:36:48.773Z,26.94
2023-06-11T20:39:16.118Z,26.93
2023-06-11T20:41:43.443Z,26.94
2023-06-11T20:44:10.829Z,26.97
2023-06-11T20:46:38.287Z,26.99
2023-06-11T20:49:08.893Z,26.93
2023-06-11T20:51:38.597Z,26.92
2023-06-11T20:54:06.584Z,26.91
2023-06-11T20:56:34.126Z,26.87
2023-06-11T20:59:04.482Z,26.82
2023-06-11T21:01:31.922Z,26.82
2023-06-11T21:03:59.301Z,26.80
2023-06-11T21:06:26.645Z,26.78
2023-06-11T21:08:53.939Z,26.82
2023-06-11T21:11:21.246Z,26.83
2023-06-11T21:14:03.850Z,26.79
2023-06-11T21:16:37.102Z,26.80
2023-06-11T21:19:04.544Z,26.78
2023-06-11T21:21:31.963Z,26.79
2023-06-11T21:24:00.027Z,26.76
2023-06-11T21:26:27.554Z,26.71
2023-06-11T21:28:54.855Z,26.63
2023-06-11T21:31:22.158Z,26.56
2023-06-11T21:33:49.465Z,26.53
2023-06-11T21:36:16.776Z,26.56
2023-06-11T21:38:44.237Z,26.57
2023-06-11T21:41:11.699Z,26.60
2023-06-11T21:43:38.952Z,26.60
2023-06-11T21:46:06.197Z,26.60
2023-06-11T21:48:33.714Z,26.60
2023-06-11T21:51:00.938Z,26.62
2023-06-11T21:53:28.186Z,26.61
2023-06-11T21:55:55.449Z,26.70
2023-06-11T21:58:22.681Z,26.79
2023-06-11T22:00:49.991Z,26.83
2023-06-11T22:03:19.861Z,26.85
2023-06-11T22:05:47.251Z,26.87
2023-06-11T22:08:14.780Z,26.88
2023-06-11T22:10:42.070Z,26.89
2023-06-11T22:13:09.279Z,26.91
2023-06-11T22:15:36.533Z,26.93
2023-06-11T22:18:03.819Z,26.93
2023-06-11T22:20:35.766Z,26.93
2023-06-11T22:23:03.709Z,26.94
2023-06-11T22:25:30.954Z,26.94
2023-06-11T22:27:58.178Z,26.95
2023-06-11T22:30:25.535Z,26.96
2023-06-11T22:32:52.800Z,26.97
2023-06-11T22:35:20.114Z,26.97
2023-06-11T22:37:47.336Z,26.97
2023-06-11T22:40:15.157Z,26.95
2023-06-11T22:42:42.620Z,26.96
2023-06-11T22:45:10.124Z,26.97
2023-06-11T22:47:37.810Z,26.98
2023-06-11T22:50:05.752Z,26.97
2023-06-11T22:52:39.543Z,26.96
2023-06-11T22:55:10.914Z,26.97
2023-06-11T22:57:38.181Z,26.99
2023-06-11T23:00:07.453Z,26.99
2023-06-11T23:02:34.710Z,26.97
2023-06-11T23:05:04.643Z,26.98
2023-06-11T23:07:32.303Z,26.98
2023-06-11T23:09:59.520Z,26.98
2023-06-11T23:12:26.728Z,26.97
2023-06-11T23:14:53.971Z,26.97
2023-06-11T23:17:21.266Z,26.98
2023-06-11T23:19:48.550Z,26.98
2023-06-11T23:22:18.556Z,26.98
2023-06-11T23:24:46.220Z,26.99
2023-06-11T23:27:16.310Z,26.98
2023-06-11T23:29:44.656Z,26.97
2023-06-11T23:32:12.124Z,26.97
2023-06-11T23:34:39.632Z,26.96
2023-06-11T23:37:07.461Z,26.97
2023-06-11T23:39:35.345Z,26.97
2023-06-11T23:42:02.928Z,26.97
2023-06-11T23:44:30.491Z,26.97
2023-06-11T23:46:57.806Z,26.97
2023-06-11T23:49:25.052Z,26.97
2023-06-11T23:51:52.373Z,26.96
2023-06-11T23:54:19.601Z,26.96
2023-06-11T23:56:46.875Z,26.95
2023-06-11T23:59:14.198Z,26.95
